Huvudsida
METAR-TAF:

METAR-TAF

Flygplatser :

Dhahran, Saudiarabien

latitud: 26-16N, longitud: 050-09E, höjd: 26 m

Aktuellt väderrapport

Denna rapport gjordes för 51 minuter sedan, klockan 12:00 UTC
Vind 13 kt från ost/sydost
Temperatur 39°C
Fuktighet 12%
Tryck 1003 hPa
Sikt 10 km eller mer
Inga moln under 1 500 m eller inga cumulonimbus

METAR: OEDR 091200Z 11013KT CAVOK 39/05 Q1003

Tid: 15:51 (12:51 UTC)

Väderprognos

Denna rapport gjordes för 4 timmar och 51 minuter sedan, klockan 08:00 UTC
Prognos gäller från 09 kl. 12 UTC till 10 kl. 18 UTC
Vind 15 kt från syd/sydost i byarna ända upp till 25 kt
Sikt: 8000 m
Sannolikhet 30% :
Temporärt
från 09 kl. 12 UTC till 09 kl. 18 UTC
Sikt: 3000 m
högt damm drev
Blir
från 09 kl. 18 UTC till 09 kl. 20 UTC
Vind 10 kt från syd/sydost

TAF: OEDR 090800Z 0912/1018 15015G25KT 8000 NSC PROB30 TEMPO 0912/0918 3000 BLDU BECMG 0918/0920 15010KT

Aktuella väderrapporter och prognoser från 4000 flygplatser (METAR- och TAF-rapporter).

De tillgängliga stationerna syns som gula och röda prickar på kartan.

För musen över prickarna för att se namnen på stationerna.

Klicka sedan för att få väderrapporter och prognoser.

För att ändra kartan: Klicka på de gröna knapparna med ett svart kors på för att zooma in; den gröna knappen med ett streck på för att zooma ut; eller på de gröna pilarna för angränsande kartor.


METAR-TAF: